Time;durP1;ratioP1;P1;durP2;ratioP2;P2;SDS_P1;SDS_P2;PMS_P1;PMS_P2;Temp;Humidity;BMP_temperature;BMP_pressure;BME280_temperature;BME280_humidity;BME280_pressure;Samples;Min_cycle;Max_cycle;Signal;HPM_P1;HPM_P2
2023/07/30 00:00:37;;;;;;;21.20;19.30;;;;;;;;;;5032181;28;20439;-42
2023/07/30 00:03:04;;;;;;;19.27;17.70;;;;;;;;;;5032021;28;20436;-42
2023/07/30 00:05:33;;;;;;;18.53;16.87;;;;;;;;;;5039741;28;20475;-42
2023/07/30 00:08:00;;;;;;;19.80;18.00;;;;;;;;;;5032292;28;20798;-42
2023/07/30 00:10:28;;;;;;;20.73;19.07;;;;;;;;;;5031891;28;20993;-45
2023/07/30 00:12:55;;;;;;;28.17;22.83;;;;;;;;;;5032147;28;20462;-42
2023/07/30 00:15:23;;;;;;;36.53;29.70;;;;;;;;;;5031684;28;20932;-42
2023/07/30 00:17:51;;;;;;;31.83;28.63;;;;;;;;;;5032128;28;20498;-44
2023/07/30 00:20:19;;;;;;;23.17;21.07;;;;;;;;;;5032170;28;20494;-43
2023/07/30 00:22:47;;;;;;;23.43;21.13;;;;;;;;;;5032265;28;20855;-44
2023/07/30 00:25:14;;;;;;;21.60;19.70;;;;;;;;;;5031545;28;20487;-42
2023/07/30 00:27:42;;;;;;;22.20;20.00;;;;;;;;;;5032053;28;20903;-42
2023/07/30 00:30:10;;;;;;;24.80;22.20;;;;;;;;;;5032014;28;20478;-45
2023/07/30 00:32:40;;;;;;;25.10;22.60;;;;;;;;;;5031665;28;20434;-42
2023/07/30 00:35:12;;;;;;;24.20;22.20;;;;;;;;;;5030833;28;20472;-42
2023/07/30 00:37:40;;;;;;;21.83;19.60;;;;;;;;;;5031852;28;20437;-44
2023/07/30 00:40:08;;;;;;;20.50;18.80;;;;;;;;;;5031641;28;20527;-45
2023/07/30 00:42:35;;;;;;;19.37;17.87;;;;;;;;;;5031613;28;20436;-43
2023/07/30 00:45:04;;;;;;;19.73;17.60;;;;;;;;;;5031260;28;20475;-42
2023/07/30 00:47:32;;;;;;;20.57;18.20;;;;;;;;;;5031813;28;20432;-45
2023/07/30 00:49:59;;;;;;;18.77;17.40;;;;;;;;;;5031793;28;20464;-43
2023/07/30 00:52:28;;;;;;;19.10;17.40;;;;;;;;;;5031378;28;20438;-45
2023/07/30 00:54:57;;;;;;;20.07;18.00;;;;;;;;;;5031143;28;20547;-44
2023/07/30 00:57:26;;;;;;;21.47;17.40;;;;;;;;;;5031544;28;20958;-45
2023/07/30 00:59:54;;;;;;;19.37;17.53;;;;;;;;;;5031799;28;20942;-42
2023/07/30 01:02:21;;;;;;;18.07;16.87;;;;;;;;;;5031469;28;20432;-44
2023/07/30 01:04:49;;;;;;;18.93;17.47;;;;;;;;;;5031239;28;20551;-43
2023/07/30 01:07:17;;;;;;;19.03;17.63;;;;;;;;;;5031344;28;20977;-42
2023/07/30 01:09:46;;;;;;;18.53;17.33;;;;;;;;;;5031646;28;20494;-43
2023/07/30 01:12:14;;;;;;;21.30;19.70;;;;;;;;;;5031537;28;20436;-43
2023/07/30 01:14:42;;;;;;;20.67;18.77;;;;;;;;;;5031070;28;20464;-43
2023/07/30 01:17:09;;;;;;;20.43;18.80;;;;;;;;;;5031200;28;20519;-44
2023/07/30 01:19:38;;;;;;;20.20;18.87;;;;;;;;;;5031569;28;20768;-42
2023/07/30 01:22:07;;;;;;;20.47;18.83;;;;;;;;;;5031462;28;20482;-42
2023/07/30 01:24:34;;;;;;;19.70;18.13;;;;;;;;;;5030929;28;20522;-42
2023/07/30 01:27:03;;;;;;;19.90;18.50;;;;;;;;;;5031198;28;20440;-42
2023/07/30 01:29:43;;;;;;;20.77;19.30;;;;;;;;;;5030958;28;20880;-45
2023/07/30 01:32:12;;;;;;;19.80;18.33;;;;;;;;;;5031388;28;20506;-42
2023/07/30 01:34:41;;;;;;;21.00;19.00;;;;;;;;;;5030707;28;21058;-44
2023/07/30 01:37:12;;;;;;;20.50;18.90;;;;;;;;;;5031378;28;20431;-43
2023/07/30 01:39:41;;;;;;;20.20;18.80;;;;;;;;;;5031402;28;20421;-45
2023/07/30 01:42:08;;;;;;;20.63;18.93;;;;;;;;;;5031387;28;20431;-43
2023/07/30 01:44:36;;;;;;;20.43;18.57;;;;;;;;;;5030539;28;21186;-42
2023/07/30 01:47:03;;;;;;;20.00;18.60;;;;;;;;;;5032654;28;20432;-45
2023/07/30 01:49:31;;;;;;;20.80;19.13;;;;;;;;;;5034523;28;20472;-46
2023/07/30 01:51:59;;;;;;;23.70;21.20;;;;;;;;;;5034818;28;20427;-43
2023/07/30 01:54:27;;;;;;;21.43;19.50;;;;;;;;;;5034428;28;20470;-43
2023/07/30 01:56:55;;;;;;;20.67;18.97;;;;;;;;;;5034985;28;20829;-43
2023/07/30 01:59:23;;;;;;;24.13;21.80;;;;;;;;;;5034707;28;20440;-43
2023/07/30 02:01:50;;;;;;;22.70;20.83;;;;;;;;;;5034211;28;21044;-42
2023/07/30 02:04:18;;;;;;;23.37;21.40;;;;;;;;;;5033986;28;21012;-41
2023/07/30 02:06:45;;;;;;;22.20;20.30;;;;;;;;;;5034689;28;20434;-41
2023/07/30 02:09:13;;;;;;;21.50;19.90;;;;;;;;;;5034772;28;20440;-41
2023/07/30 02:11:41;;;;;;;21.70;20.00;;;;;;;;;;5034178;28;20507;-41
2023/07/30 02:14:09;;;;;;;24.00;21.93;;;;;;;;;;5033853;28;20464;-43
2023/07/30 02:16:37;;;;;;;23.70;21.50;;;;;;;;;;5034074;28;20944;-43
2023/07/30 02:19:04;;;;;;;22.90;21.20;;;;;;;;;;5034334;28;20436;-42
2023/07/30 02:21:33;;;;;;;22.73;20.63;;;;;;;;;;5034011;28;20932;-42
2023/07/30 02:24:00;;;;;;;21.80;19.67;;;;;;;;;;5033820;28;20534;-41
2023/07/30 02:26:28;;;;;;;21.97;20.27;;;;;;;;;;5033878;28;20527;-41
2023/07/30 02:29:00;;;;;;;22.63;20.83;;;;;;;;;;5034119;28;20439;-42
2023/07/30 02:31:27;;;;;;;23.27;21.37;;;;;;;;;;5033707;28;20542;-44
2023/07/30 02:33:54;;;;;;;24.47;22.43;;;;;;;;;;5033601;28;20474;-43
2023/07/30 02:36:22;;;;;;;22.77;20.70;;;;;;;;;;5034057;28;20521;-42
2023/07/30 02:38:49;;;;;;;22.67;20.40;;;;;;;;;;5034017;28;20800;-43
2023/07/30 02:41:17;;;;;;;24.47;22.00;;;;;;;;;;5033911;28;20437;-43
2023/07/30 02:43:44;;;;;;;24.07;21.93;;;;;;;;;;5033335;28;20889;-41
2023/07/30 02:46:13;;;;;;;22.57;20.40;;;;;;;;;;5033558;28;20927;-42
2023/07/30 02:48:41;;;;;;;24.23;21.80;;;;;;;;;;5033863;28;20490;-42
2023/07/30 02:51:08;;;;;;;27.43;21.63;;;;;;;;;;5033559;28;20476;-42
2023/07/30 02:53:36;;;;;;;24.13;21.73;;;;;;;;;;5033197;28;20460;-41
2023/07/30 02:56:03;;;;;;;23.47;20.40;;;;;;;;;;5033748;28;20436;-43
2023/07/30 02:58:31;;;;;;;24.50;22.17;;;;;;;;;;5033249;28;20432;-44
2023/07/30 03:01:05;;;;;;;25.83;23.33;;;;;;;;;;5033247;28;20475;-41
2023/07/30 03:03:34;;;;;;;25.80;22.70;;;;;;;;;;5032698;28;20972;-43
2023/07/30 03:06:02;;;;;;;29.43;23.30;;;;;;;;;;5041287;28;20933;-42
2023/07/30 03:08:29;;;;;;;26.30;23.83;;;;;;;;;;5033475;28;20474;-42
2023/07/30 03:10:58;;;;;;;27.03;24.33;;;;;;;;;;5033319;28;20554;-43
2023/07/30 03:13:26;;;;;;;25.10;22.90;;;;;;;;;;5033186;28;20474;-43
2023/07/30 03:15:53;;;;;;;26.77;24.43;;;;;;;;;;5032622;28;21020;-43
2023/07/30 03:18:21;;;;;;;26.00;23.70;;;;;;;;;;5033044;28;20815;-43
2023/07/30 03:20:50;;;;;;;27.47;24.80;;;;;;;;;;5032937;28;20468;-43
2023/07/30 03:23:17;;;;;;;29.33;25.40;;;;;;;;;;5033030;28;20436;-42
2023/07/30 03:25:45;;;;;;;26.07;23.60;;;;;;;;;;5032360;28;20986;-41
2023/07/30 03:28:12;;;;;;;27.57;24.93;;;;;;;;;;5033085;28;20440;-43
2023/07/30 03:30:40;;;;;;;25.70;23.43;;;;;;;;;;5032953;28;20531;-42
2023/07/30 03:33:07;;;;;;;30.00;25.33;;;;;;;;;;5032454;28;21255;-42
2023/07/30 03:35:35;;;;;;;26.90;24.50;;;;;;;;;;5032171;28;20468;-42
2023/07/30 03:38:03;;;;;;;25.33;23.00;;;;;;;;;;5032599;28;20438;-42
2023/07/30 03:40:31;;;;;;;26.07;23.77;;;;;;;;;;5032842;28;20436;-42
2023/07/30 03:42:58;;;;;;;24.30;21.90;;;;;;;;;;5032408;28;20532;-41
2023/07/30 03:45:26;;;;;;;26.33;23.73;;;;;;;;;;5031992;28;20464;-44
2023/07/30 03:47:53;;;;;;;25.87;23.30;;;;;;;;;;5032300;28;20447;-42
2023/07/30 03:50:21;;;;;;;27.47;24.90;;;;;;;;;;5032720;28;20468;-44
2023/07/30 03:52:49;;;;;;;22.93;21.23;;;;;;;;;;5032349;28;20556;-42
2023/07/30 03:55:18;;;;;;;23.50;21.47;;;;;;;;;;5031826;28;20487;-43
2023/07/30 03:57:45;;;;;;;24.27;22.07;;;;;;;;;;5032470;28;20432;-42
2023/07/30 04:00:13;;;;;;;24.57;22.60;;;;;;;;;;5032543;28;20851;-42
2023/07/30 04:02:40;;;;;;;24.03;22.07;;;;;;;;;;5032270;28;20438;-42
2023/07/30 04:05:08;;;;;;;21.90;20.00;;;;;;;;;;5033498;28;20495;-42
2023/07/30 04:07:35;;;;;;;23.80;21.53;;;;;;;;;;5038452;28;20784;-42
2023/07/30 04:10:08;;;;;;;22.37;20.57;;;;;;;;;;5031451;28;20452;-42
2023/07/30 04:12:36;;;;;;;21.87;19.97;;;;;;;;;;5031767;28;20471;-42
2023/07/30 04:15:04;;;;;;;22.17;20.37;;;;;;;;;;5031618;28;20495;-43
2023/07/30 04:17:32;;;;;;;20.03;18.33;;;;;;;;;;5032230;28;20440;-42
2023/07/30 04:19:59;;;;;;;21.43;19.67;;;;;;;;;;5032133;28;20493;-42
2023/07/30 04:22:27;;;;;;;23.00;21.03;;;;;;;;;;5031873;28;20862;-42
2023/07/30 04:24:54;;;;;;;24.77;22.37;;;;;;;;;;5031426;28;20522;-42
2023/07/30 04:27:22;;;;;;;22.70;20.90;;;;;;;;;;5031612;28;20444;-42
2023/07/30 04:29:52;;;;;;;22.63;20.80;;;;;;;;;;5031245;28;20524;-42
2023/07/30 04:32:19;;;;;;;26.53;21.60;;;;;;;;;;5031809;28;20494;-42
2023/07/30 04:34:47;;;;;;;23.30;21.47;;;;;;;;;;5031176;28;20463;-43
2023/07/30 04:37:14;;;;;;;20.63;19.13;;;;;;;;;;5031935;28;20591;-41
2023/07/30 04:39:42;;;;;;;22.90;20.70;;;;;;;;;;5031649;28;20433;-42
2023/07/30 04:42:09;;;;;;;21.67;19.93;;;;;;;;;;5031739;28;20786;-41
2023/07/30 04:44:37;;;;;;;20.27;18.73;;;;;;;;;;5031149;28;20468;-44
2023/07/30 04:47:06;;;;;;;20.97;19.37;;;;;;;;;;5031835;28;20517;-42
2023/07/30 04:49:33;;;;;;;20.13;18.70;;;;;;;;;;5031575;28;20467;-44
2023/07/30 04:52:01;;;;;;;22.20;20.07;;;;;;;;;;5031628;28;20553;-42
2023/07/30 04:54:28;;;;;;;20.23;18.80;;;;;;;;;;5030872;28;20542;-43
2023/07/30 04:56:56;;;;;;;19.67;18.37;;;;;;;;;;5031589;28;20487;-42
2023/07/30 04:59:23;;;;;;;23.00;21.10;;;;;;;;;;5030601;28;21014;-42
2023/07/30 05:01:51;;;;;;;24.03;22.23;;;;;;;;;;5031535;28;20413;-42
2023/07/30 05:04:20;;;;;;;25.70;23.90;;;;;;;;;;5030841;28;20966;-42
2023/07/30 05:06:47;;;;;;;23.00;21.20;;;;;;;;;;5031381;28;20452;-42
2023/07/30 05:09:15;;;;;;;25.03;23.30;;;;;;;;;;5031512;28;20515;-44
2023/07/30 05:11:42;;;;;;;25.67;23.40;;;;;;;;;;5031359;28;20478;-42
2023/07/30 05:14:09;;;;;;;24.13;22.37;;;;;;;;;;5031165;28;20874;-42
2023/07/30 05:16:37;;;;;;;24.23;22.13;;;;;;;;;;5031524;28;20439;-42
2023/07/30 05:19:05;;;;;;;24.10;22.33;;;;;;;;;;5031275;28;20427;-42
2023/07/30 05:21:34;;;;;;;24.20;22.20;;;;;;;;;;5034104;28;20420;-42
2023/07/30 05:24:03;;;;;;;23.60;21.80;;;;;;;;;;5034927;28;20829;-42
2023/07/30 05:26:30;;;;;;;23.93;22.03;;;;;;;;;;5034850;28;20471;-42
2023/07/30 05:28:57;;;;;;;25.67;23.77;;;;;;;;;;5035145;28;20514;-42
2023/07/30 05:31:25;;;;;;;25.07;22.07;;;;;;;;;;5034821;28;20917;-42
2023/07/30 05:33:53;;;;;;;23.43;21.63;;;;;;;;;;5033447;28;21087;-44
2023/07/30 05:36:21;;;;;;;25.37;23.23;;;;;;;;;;5035191;28;20435;-43
2023/07/30 05:38:50;;;;;;;25.13;23.13;;;;;;;;;;5035033;28;20519;-44
2023/07/30 05:41:17;;;;;;;23.17;21.57;;;;;;;;;;5034903;28;20435;-42
2023/07/30 05:43:45;;;;;;;24.07;22.37;;;;;;;;;;5034244;28;20455;-42
2023/07/30 05:46:12;;;;;;;22.50;20.80;;;;;;;;;;5034933;28;20438;-44
2023/07/30 05:48:40;;;;;;;23.97;21.87;;;;;;;;;;5034860;28;20432;-44
2023/07/30 05:51:07;;;;;;;22.40;20.60;;;;;;;;;;5042829;28;20478;-43
2023/07/30 05:53:35;;;;;;;22.27;20.67;;;;;;;;;;5044376;28;20641;-43
2023/07/30 05:56:04;;;;;;;20.10;18.70;;;;;;;;;;5034737;28;20428;-44
2023/07/30 05:58:31;;;;;;;20.10;18.90;;;;;;;;;;5030825;28;21033;-42
2023/07/30 06:00:59;;;;;;;20.03;18.63;;;;;;;;;;5040002;28;20504;-42
2023/07/30 06:03:27;;;;;;;20.20;18.60;;;;;;;;;;5035580;28;20493;-42
2023/07/30 06:05:55;;;;;;;20.83;19.30;;;;;;;;;;5036282;28;20459;-43
2023/07/30 06:08:22;;;;;;;20.87;19.47;;;;;;;;;;5034389;28;20526;-42
2023/07/30 06:10:50;;;;;;;19.03;17.83;;;;;;;;;;5036526;28;20423;-42
2023/07/30 06:13:19;;;;;;;20.10;18.47;;;;;;;;;;5049855;28;20538;-44
2023/07/30 06:15:46;;;;;;;19.17;17.57;;;;;;;;;;5035971;28;21112;-42
2023/07/30 06:18:14;;;;;;;20.10;18.13;;;;;;;;;;5040930;28;20484;-43
2023/07/30 06:20:42;;;;;;;19.97;18.27;;;;;;;;;;5035899;28;20460;-43
2023/07/30 06:23:09;;;;;;;20.20;18.53;;;;;;;;;;5037126;28;20443;-43
2023/07/30 06:25:37;;;;;;;18.23;16.97;;;;;;;;;;5041669;28;20459;-45
2023/07/30 06:28:05;;;;;;;19.37;17.57;;;;;;;;;;5043774;28;20458;-45
2023/07/30 06:30:34;;;;;;;18.27;16.97;;;;;;;;;;5039795;28;20431;-42
2023/07/30 06:33:01;;;;;;;18.60;16.93;;;;;;;;;;5044028;28;20551;-47
2023/07/30 06:35:29;;;;;;;18.80;17.30;;;;;;;;;;5034481;28;20468;-42
2023/07/30 06:37:57;;;;;;;19.33;17.70;;;;;;;;;;5037276;28;20497;-43
2023/07/30 06:40:24;;;;;;;18.57;16.97;;;;;;;;;;5039150;28;20423;-44
2023/07/30 06:42:51;;;;;;;17.90;16.50;;;;;;;;;;5029502;28;20420;-43
2023/07/30 06:45:19;;;;;;;17.70;16.00;;;;;;;;;;5031537;28;21043;-43
2023/07/30 06:47:48;;;;;;;17.83;16.03;;;;;;;;;;5033292;28;20492;-42
2023/07/30 06:50:15;;;;;;;14.43;13.43;;;;;;;;;;5032764;28;20420;-43
2023/07/30 06:52:43;;;;;;;14.03;12.67;;;;;;;;;;5035076;28;20498;-44
2023/07/30 06:55:11;;;;;;;14.23;12.80;;;;;;;;;;5028140;28;20890;-43
2023/07/30 06:57:38;;;;;;;13.53;12.17;;;;;;;;;;5029943;28;20914;-43
2023/07/30 07:00:06;;;;;;;12.63;11.70;;;;;;;;;;5034592;28;20918;-44
2023/07/30 07:02:34;;;;;;;10.70;9.80;;;;;;;;;;5031318;28;20428;-48
2023/07/30 07:05:05;;;;;;;10.97;8.00;;;;;;;;;;5035514;28;20459;-43
2023/07/30 07:07:32;;;;;;;9.93;7.80;;;;;;;;;;5029158;28;20707;-43
2023/07/30 07:10:00;;;;;;;8.20;7.17;;;;;;;;;;5034481;28;20428;-44
2023/07/30 07:12:27;;;;;;;10.27;7.00;;;;;;;;;;5038905;28;20472;-44
2023/07/30 07:14:57;;;;;;;9.80;7.57;;;;;;;;;;5036209;28;20331;-43
2023/07/30 07:17:25;;;;;;;8.07;7.23;;;;;;;;;;5035367;28;20451;-46
2023/07/30 07:19:53;;;;;;;13.40;7.40;;;;;;;;;;5029017;28;20494;-45
2023/07/30 07:22:24;;;;;;;8.30;7.20;;;;;;;;;;5033573;28;20420;-42
2023/07/30 07:24:52;;;;;;;9.10;8.07;;;;;;;;;;5033112;28;20462;-42
2023/07/30 07:27:20;;;;;;;7.80;7.10;;;;;;;;;;5034628;28;20439;-42
2023/07/30 07:29:48;;;;;;;14.60;8.57;;;;;;;;;;5035139;28;20618;-42
2023/07/30 07:32:16;;;;;;;13.80;8.27;;;;;;;;;;5033394;28;20460;-43
2023/07/30 07:34:46;;;;;;;11.67;7.97;;;;;;;;;;5035443;28;20463;-42
2023/07/30 07:37:15;;;;;;;9.53;7.40;;;;;;;;;;5034583;28;20507;-42
2023/07/30 07:39:43;;;;;;;14.43;7.50;;;;;;;;;;5031169;28;20432;-44
2023/07/30 07:42:11;;;;;;;12.80;6.90;;;;;;;;;;5033205;28;20797;-42
2023/07/30 07:44:38;;;;;;;13.97;8.00;;;;;;;;;;5032470;28;20465;-43
2023/07/30 07:47:06;;;;;;;8.40;7.40;;;;;;;;;;5033983;28;20515;-44
2023/07/30 07:49:34;;;;;;;10.63;7.33;;;;;;;;;;5035692;28;20462;-45
2023/07/30 07:52:02;;;;;;;10.27;7.30;;;;;;;;;;5029297;28;20427;-44
2023/07/30 07:54:29;;;;;;;9.47;6.57;;;;;;;;;;5035795;28;20880;-43
2023/07/30 07:56:58;;;;;;;7.23;6.50;;;;;;;;;;5031736;28;20691;-43
2023/07/30 07:59:27;;;;;;;8.57;5.80;;;;;;;;;;5030373;28;20612;-43
2023/07/30 08:01:55;;;;;;;11.07;6.47;;;;;;;;;;5038133;28;20604;-44
2023/07/30 08:04:22;;;;;;;9.83;6.50;;;;;;;;;;5031315;28;20463;-42
2023/07/30 08:06:50;;;;;;;7.90;5.90;;;;;;;;;;5028590;28;20427;-43
2023/07/30 08:09:17;;;;;;;9.50;6.40;;;;;;;;;;5036205;28;20459;-43
2023/07/30 08:11:45;;;;;;;11.13;6.60;;;;;;;;;;5035809;28;20961;-44
2023/07/30 08:14:14;;;;;;;11.37;6.47;;;;;;;;;;5033831;28;20541;-45
2023/07/30 08:16:41;;;;;;;8.40;6.70;;;;;;;;;;5040951;28;20427;-43
2023/07/30 08:19:09;;;;;;;8.30;6.30;;;;;;;;;;5035989;28;20454;-43
2023/07/30 08:21:36;;;;;;;7.43;5.70;;;;;;;;;;5037349;28;20470;-46
2023/07/30 08:24:04;;;;;;;6.53;5.73;;;;;;;;;;5029629;28;20547;-43
2023/07/30 08:26:32;;;;;;;9.07;6.03;;;;;;;;;;5039351;28;20954;-43
2023/07/30 08:29:00;;;;;;;8.80;5.50;;;;;;;;;;5033920;28;20465;-42
2023/07/30 08:31:29;;;;;;;10.37;5.97;;;;;;;;;;5037603;28;20432;-42
2023/07/30 08:33:56;;;;;;;9.13;6.00;;;;;;;;;;5034564;28;20467;-44
2023/07/30 08:36:24;;;;;;;7.13;5.33;;;;;;;;;;5035296;28;20902;-46
2023/07/30 08:38:51;;;;;;;11.00;6.10;;;;;;;;;;5029484;28;20435;-43
2023/07/30 08:41:19;;;;;;;6.80;5.73;;;;;;;;;;5041152;28;20441;-45
2023/07/30 08:43:48;;;;;;;10.07;6.10;;;;;;;;;;5030321;28;20532;-43
2023/07/30 08:46:16;;;;;;;9.33;5.57;;;;;;;;;;5037471;28;20437;-44
2023/07/30 08:48:45;;;;;;;7.13;5.90;;;;;;;;;;5031525;28;20430;-44
2023/07/30 08:51:18;;;;;;;12.40;6.90;;;;;;;;;;5036588;28;20957;-44
2023/07/30 08:53:45;;;;;;;7.77;5.87;;;;;;;;;;5033385;28;20846;-43
2023/07/30 08:56:12;;;;;;;6.93;5.80;;;;;;;;;;5033259;28;20467;-45
2023/07/30 08:58:41;;;;;;;9.80;5.83;;;;;;;;;;5035394;28;20497;-43
2023/07/30 09:01:10;;;;;;;7.00;6.30;;;;;;;;;;5035536;28;20435;-46
2023/07/30 09:03:38;;;;;;;7.37;6.67;;;;;;;;;;5034536;28;20435;-44
2023/07/30 09:06:07;;;;;;;7.33;6.63;;;;;;;;;;5044924;28;21014;-44
2023/07/30 09:08:35;;;;;;;7.43;6.00;;;;;;;;;;5055291;28;20933;-43
2023/07/30 09:11:08;;;;;;;7.70;5.37;;;;;;;;;;5055324;28;20492;-43
2023/07/30 09:13:40;;;;;;;8.90;5.47;;;;;;;;;;5053687;28;20426;-43
2023/07/30 09:16:11;;;;;;;8.27;6.00;;;;;;;;;;5054312;28;20523;-44
2023/07/30 09:18:40;;;;;;;6.30;5.70;;;;;;;;;;5054975;28;20449;-42
2023/07/30 09:21:08;;;;;;;7.97;5.80;;;;;;;;;;5055101;28;20431;-43
2023/07/30 09:23:40;;;;;;;8.33;5.93;;;;;;;;;;5054573;28;20438;-49
2023/07/30 09:26:07;;;;;;;10.60;5.97;;;;;;;;;;5054995;28;20442;-43
2023/07/30 09:28:35;;;;;;;7.33;5.77;;;;;;;;;;5054886;28;20431;-43
2023/07/30 09:31:03;;;;;;;7.30;5.83;;;;;;;;;;5054752;28;20487;-43
2023/07/30 09:33:48;;;;;;;7.70;5.67;;;;;;;;;;5054371;28;20864;-44
2023/07/30 09:36:19;;;;;;;9.57;5.83;;;;;;;;;;5054617;28;20525;-43
2023/07/30 09:38:49;;;;;;;7.87;5.83;;;;;;;;;;5054813;28;20925;-44
2023/07/30 09:41:17;;;;;;;9.30;5.30;;;;;;;;;;5054596;28;20470;-46
2023/07/30 09:43:45;;;;;;;13.37;5.70;;;;;;;;;;5053919;28;20451;-43
2023/07/30 09:46:12;;;;;;;5.77;5.10;;;;;;;;;;5054499;28;20530;-44
2023/07/30 09:48:40;;;;;;;8.07;6.00;;;;;;;;;;5054310;28;20435;-47
2023/07/30 09:51:08;;;;;;;9.30;6.67;;;;;;;;;;5053882;28;20426;-44
2023/07/30 09:53:37;;;;;;;11.03;7.93;;;;;;;;;;5053565;28;20449;-42
2023/07/30 09:56:05;;;;;;;9.80;7.73;;;;;;;;;;5053858;28;20475;-43
2023/07/30 09:58:33;;;;;;;8.53;6.93;;;;;;;;;;5053948;28;20439;-44
2023/07/30 10:01:01;;;;;;;11.53;7.60;;;;;;;;;;5053934;28;20437;-46
2023/07/30 10:03:29;;;;;;;8.30;7.53;;;;;;;;;;5053293;28;20435;-42
2023/07/30 10:06:02;;;;;;;12.00;8.10;;;;;;;;;;5042607;28;20461;-42
2023/07/30 10:08:32;;;;;;;6.70;6.10;;;;;;;;;;5052859;28;20492;-44
2023/07/30 10:11:02;;;;;;;8.50;6.70;;;;;;;;;;5053782;28;20435;-42
2023/07/30 10:13:30;;;;;;;8.80;6.90;;;;;;;;;;5053616;28;20485;-41
2023/07/30 10:15:59;;;;;;;8.77;7.30;;;;;;;;;;5053338;28;21025;-42
2023/07/30 10:18:33;;;;;;;10.30;6.50;;;;;;;;;;5053169;28;20439;-43
2023/07/30 10:21:02;;;;;;;10.50;6.60;;;;;;;;;;5053333;28;20484;-43
2023/07/30 10:23:33;;;;;;;10.37;6.33;;;;;;;;;;5053386;28;20463;-42
2023/07/30 10:26:09;;;;;;;13.10;7.00;;;;;;;;;;5052933;28;20964;-43
2023/07/30 10:28:39;;;;;;;14.43;7.17;;;;;;;;;;5052247;28;20458;-48
2023/07/30 10:31:09;;;;;;;12.43;5.60;;;;;;;;;;5053216;28;20949;-42
2023/07/30 10:33:47;;;;;;;6.50;5.33;;;;;;;;;;5052633;28;20430;-43
2023/07/30 10:36:15;;;;;;;10.17;6.53;;;;;;;;;;5053045;28;20548;-44
2023/07/30 10:38:43;;;;;;;11.57;6.63;;;;;;;;;;5052882;28;20435;-42
2023/07/30 10:41:13;;;;;;;9.60;5.93;;;;;;;;;;5044731;28;20439;-44
2023/07/30 10:43:41;;;;;;;13.93;5.97;;;;;;;;;;5031822;28;20452;-43
2023/07/30 10:46:13;;;;;;;5.97;5.00;;;;;;;;;;5032480;28;20424;-42
2023/07/30 10:48:41;;;;;;;11.27;5.20;;;;;;;;;;5033218;28;20861;-43
2023/07/30 10:51:10;;;;;;;9.57;5.30;;;;;;;;;;5032794;28;20518;-45
2023/07/30 10:53:39;;;;;;;19.30;5.77;;;;;;;;;;5031843;28;20472;-42
2023/07/30 10:56:07;;;;;;;8.57;5.40;;;;;;;;;;5032201;28;20702;-42
2023/07/30 10:58:36;;;;;;;7.87;4.80;;;;;;;;;;5031884;28;21095;-42
2023/07/30 11:01:04;;;;;;;8.37;4.83;;;;;;;;;;5032147;28;20439;-43
2023/07/30 11:03:32;;;;;;;8.23;5.27;;;;;;;;;;5032100;28;20467;-43
2023/07/30 11:06:00;;;;;;;7.33;4.77;;;;;;;;;;5041417;28;20459;-43
2023/07/30 11:08:34;;;;;;;5.57;4.97;;;;;;;;;;5052540;28;20427;-43
2023/07/30 11:11:02;;;;;;;5.80;4.73;;;;;;;;;;5051416;28;20474;-42
2023/07/30 11:13:30;;;;;;;6.10;4.50;;;;;;;;;;5052214;28;20529;-42
2023/07/30 11:15:58;;;;;;;10.00;4.90;;;;;;;;;;5051706;28;20517;-42
2023/07/30 11:18:31;;;;;;;9.03;5.37;;;;;;;;;;5052356;28;21007;-42
2023/07/30 11:21:03;;;;;;;5.73;5.20;;;;;;;;;;5051897;28;20426;-44
2023/07/30 11:23:30;;;;;;;14.17;4.83;;;;;;;;;;5051871;28;20940;-42
2023/07/30 11:25:58;;;;;;;10.13;4.87;;;;;;;;;;5051221;28;20475;-42
2023/07/30 11:28:30;;;;;;;7.30;4.40;;;;;;;;;;5052044;28;20426;-43
2023/07/30 11:31:01;;;;;;;8.37;4.53;;;;;;;;;;5052173;28;20496;-43
2023/07/30 11:33:29;;;;;;;10.43;5.00;;;;;;;;;;5051591;28;20433;-44
2023/07/30 11:35:57;;;;;;;8.90;5.27;;;;;;;;;;5051379;28;20471;-43
2023/07/30 11:38:24;;;;;;;5.13;4.07;;;;;;;;;;5051345;28;20964;-43
2023/07/30 11:40:52;;;;;;;5.73;4.67;;;;;;;;;;5051484;28;20470;-43
2023/07/30 11:43:21;;;;;;;4.97;3.90;;;;;;;;;;5051201;28;20426;-43
2023/07/30 11:45:48;;;;;;;9.00;5.00;;;;;;;;;;5051010;28;20829;-42
2023/07/30 11:48:17;;;;;;;7.37;3.90;;;;;;;;;;5051457;28;20461;-43
2023/07/30 11:50:49;;;;;;;6.87;4.67;;;;;;;;;;5051376;28;20458;-42
2023/07/30 11:53:16;;;;;;;8.23;4.27;;;;;;;;;;5051362;28;20508;-44
2023/07/30 11:55:44;;;;;;;13.40;4.83;;;;;;;;;;5050525;28;20478;-43
2023/07/30 11:58:12;;;;;;;5.00;4.23;;;;;;;;;;5051637;28;20481;-43
2023/07/30 12:00:41;;;;;;;9.07;5.07;;;;;;;;;;5051534;28;20785;-44
2023/07/30 12:03:11;;;;;;;8.53;4.63;;;;;;;;;;5051481;28;20845;-42
2023/07/30 12:05:40;;;;;;;5.17;3.43;;;;;;;;;;5042260;28;20463;-44
2023/07/30 12:08:13;;;;;;;6.07;3.93;;;;;;;;;;5049824;28;20485;-43
2023/07/30 12:10:41;;;;;;;5.87;4.40;;;;;;;;;;5051011;28;20435;-42
2023/07/30 12:13:12;;;;;;;5.10;4.60;;;;;;;;;;5051212;28;20518;-44
2023/07/30 12:15:39;;;;;;;5.60;3.60;;;;;;;;;;5050807;28;20470;-43
2023/07/30 12:18:07;;;;;;;5.77;4.60;;;;;;;;;;5051369;28;20509;-43
2023/07/30 12:20:34;;;;;;;5.97;4.23;;;;;;;;;;5051374;28;20426;-45
2023/07/30 12:23:03;;;;;;;5.40;4.90;;;;;;;;;;5051191;28;20471;-42
2023/07/30 12:25:31;;;;;;;8.20;5.30;;;;;;;;;;5050023;28;20471;-43
2023/07/30 12:28:00;;;;;;;6.20;4.10;;;;;;;;;;5050933;28;20438;-42
2023/07/30 12:30:27;;;;;;;6.57;4.40;;;;;;;;;;5050193;28;20505;-42
2023/07/30 12:32:55;;;;;;;7.73;4.60;;;;;;;;;;5050921;28;20441;-42
2023/07/30 12:35:23;;;;;;;7.73;4.70;;;;;;;;;;5050019;28;20470;-42
2023/07/30 12:37:50;;;;;;;6.97;4.70;;;;;;;;;;5050879;28;20437;-42
2023/07/30 12:40:19;;;;;;;4.40;4.00;;;;;;;;;;5035855;28;20439;-46
2023/07/30 12:42:47;;;;;;;7.43;4.70;;;;;;;;;;5030897;28;20497;-44
2023/07/30 12:45:14;;;;;;;9.87;4.93;;;;;;;;;;5030672;28;20654;-43
2023/07/30 12:47:42;;;;;;;8.40;5.00;;;;;;;;;;5030722;28;20450;-44
2023/07/30 12:50:10;;;;;;;13.03;4.50;;;;;;;;;;5031372;28;20438;-43
2023/07/30 12:52:37;;;;;;;5.93;3.90;;;;;;;;;;5030337;28;20462;-44
2023/07/30 12:55:06;;;;;;;5.13;3.63;;;;;;;;;;5030648;28;20545;-42
2023/07/30 12:57:35;;;;;;;4.23;3.60;;;;;;;;;;5030875;28;21071;-42
2023/07/30 13:00:04;;;;;;;3.60;3.30;;;;;;;;;;5031014;28;20934;-42
2023/07/30 13:02:33;;;;;;;6.17;3.93;;;;;;;;;;5030948;28;20970;-42
2023/07/30 13:05:01;;;;;;;4.47;3.97;;;;;;;;;;5038748;28;20458;-44
2023/07/30 13:07:28;;;;;;;8.63;4.70;;;;;;;;;;5043899;28;20481;-42
2023/07/30 13:10:03;;;;;;;7.73;4.70;;;;;;;;;;5050903;28;20427;-43
2023/07/30 13:12:30;;;;;;;9.20;4.77;;;;;;;;;;5050716;28;20936;-43
2023/07/30 13:14:59;;;;;;;7.00;4.30;;;;;;;;;;5050013;28;20471;-43
2023/07/30 13:17:27;;;;;;;5.47;4.50;;;;;;;;;;5051119;28;20482;-45
2023/07/30 13:19:55;;;;;;;5.53;4.87;;;;;;;;;;5050862;28;20916;-44
2023/07/30 13:22:22;;;;;;;9.07;5.10;;;;;;;;;;5050079;28;20474;-42
2023/07/30 13:24:50;;;;;;;9.17;5.17;;;;;;;;;;5050583;28;20541;-43
2023/07/30 13:27:17;;;;;;;7.20;4.80;;;;;;;;;;5050835;28;20447;-42
2023/07/30 13:29:45;;;;;;;10.47;5.17;;;;;;;;;;5050750;28;20453;-42
2023/07/30 13:32:14;;;;;;;11.23;6.30;;;;;;;;;;5050936;28;20470;-43
2023/07/30 13:34:41;;;;;;;9.70;5.60;;;;;;;;;;5050253;28;20781;-42
2023/07/30 13:37:09;;;;;;;16.13;7.20;;;;;;;;;;5050344;28;20880;-43
2023/07/30 13:39:36;;;;;;;10.90;5.77;;;;;;;;;;5050963;28;20477;-42
2023/07/30 13:42:04;;;;;;;8.93;5.80;;;;;;;;;;5052369;28;20521;-42
2023/07/30 13:44:32;;;;;;;11.30;5.90;;;;;;;;;;5053858;28;20470;-43
2023/07/30 13:46:59;;;;;;;13.53;7.17;;;;;;;;;;5054446;28;20809;-44
2023/07/30 13:49:28;;;;;;;11.70;6.07;;;;;;;;;;5054437;28;20430;-42
2023/07/30 13:51:56;;;;;;;11.23;6.30;;;;;;;;;;5054144;28;20462;-43
2023/07/30 13:54:23;;;;;;;14.83;7.03;;;;;;;;;;5047774;28;20463;-44
2023/07/30 13:56:51;;;;;;;12.70;7.00;;;;;;;;;;5034111;28;20467;-43
2023/07/30 13:59:18;;;;;;;8.50;6.70;;;;;;;;;;5034064;28;20515;-43
2023/07/30 14:01:46;;;;;;;6.37;5.77;;;;;;;;;;5034038;28;20463;-43
2023/07/30 14:04:14;;;;;;;9.63;6.20;;;;;;;;;;5035798;28;20463;-43
2023/07/30 14:06:44;;;;;;;9.73;7.07;;;;;;;;;;5044945;28;21109;-43
2023/07/30 14:09:11;;;;;;;7.90;5.50;;;;;;;;;;5054141;28;20867;-43
2023/07/30 14:11:42;;;;;;;12.30;5.60;;;;;;;;;;5053711;28;20520;-42
2023/07/30 14:14:10;;;;;;;7.30;6.03;;;;;;;;;;5053423;28;20469;-42
2023/07/30 14:16:37;;;;;;;9.30;5.30;;;;;;;;;;5053559;28;20832;-43
2023/07/30 14:19:05;;;;;;;6.33;5.70;;;;;;;;;;5053857;28;20801;-45
2023/07/30 14:21:32;;;;;;;9.40;5.67;;;;;;;;;;5053249;28;20445;-44
2023/07/30 14:24:01;;;;;;;6.57;5.00;;;;;;;;;;5053323;28;20542;-46
2023/07/30 14:26:29;;;;;;;6.77;5.50;;;;;;;;;;5053350;28;20449;-44
2023/07/30 14:28:56;;;;;;;6.17;5.63;;;;;;;;;;5053520;28;20435;-42
2023/07/30 14:31:23;;;;;;;6.40;5.00;;;;;;;;;;5053108;28;20509;-42
2023/07/30 14:33:51;;;;;;;9.33;4.77;;;;;;;;;;5053029;28;21002;-42